Seadrift, Texas
Current Conditions -  °F | °C
As of 12:55 PM on Sunday 23 Nov 2014 (Local Time) from KPKV Reporting Station
Clear Clear  
Wind Chill: 76°   Ceiling: Unl
Heat Index: 78°   Visibility: 10mi
Dew Point: 60°   Wind: 13mph
Humidity: 56%   Direction: 250°WSW
Pressure: 29.65"   Gusts: NA
Location:  28.42°N, 96.71°W
Report Text: KPKV 231855Z AUTO 25011KT 10SM CLR 25/15 A2965 RMK AO2 T02470153
Loading
Personal Weather Stations






























Interactive Weather Map New forecast layout! Learn more

10-Day Weather Forecast

Advertisements
Track Severe Weather on mobile